sensor_id;sensor_type;location;lat;lon;timestamp;P1;durP1;ratioP1;P2;durP2;ratioP2
7557;SDS011;3820;51.098;13.716;2023-05-17T00:00:44;3.90;;;1.10;;
7557;SDS011;3820;51.098;13.716;2023-05-17T00:03:11;1.37;;;1.20;;
7557;SDS011;3820;51.098;13.716;2023-05-17T00:05:37;1.60;;;1.13;;
7557;SDS011;3820;51.098;13.716;2023-05-17T00:08:04;0.90;;;0.90;;
7557;SDS011;3820;51.098;13.716;2023-05-17T00:10:31;1.23;;;1.10;;
7557;SDS011;3820;51.098;13.716;2023-05-17T00:12:57;1.43;;;1.20;;
7557;SDS011;3820;51.098;13.716;2023-05-17T00:15:24;1.40;;;1.30;;
7557;SDS011;3820;51.098;13.716;2023-05-17T00:17:51;1.10;;;1.00;;
7557;SDS011;3820;51.098;13.716;2023-05-17T00:20:17;1.03;;;1.03;;
7557;SDS011;3820;51.098;13.716;2023-05-17T00:22:44;2.27;;;1.13;;
7557;SDS011;3820;51.098;13.716;2023-05-17T00:25:12;1.40;;;1.10;;
7557;SDS011;3820;51.098;13.716;2023-05-17T00:27:38;1.40;;;1.07;;
7557;SDS011;3820;51.098;13.716;2023-05-17T00:30:05;2.00;;;1.10;;
7557;SDS011;3820;51.098;13.716;2023-05-17T00:32:32;1.23;;;1.13;;
7557;SDS011;3820;51.098;13.716;2023-05-17T00:34:59;1.87;;;1.30;;
7557;SDS011;3820;51.098;13.716;2023-05-17T00:37:25;1.20;;;1.10;;
7557;SDS011;3820;51.098;13.716;2023-05-17T00:39:52;1.43;;;1.10;;
7557;SDS011;3820;51.098;13.716;2023-05-17T00:42:19;1.00;;;0.90;;
7557;SDS011;3820;51.098;13.716;2023-05-17T00:44:45;1.70;;;1.10;;
7557;SDS011;3820;51.098;13.716;2023-05-17T00:47:12;1.30;;;1.03;;
7557;SDS011;3820;51.098;13.716;2023-05-17T00:49:38;1.20;;;1.10;;
7557;SDS011;3820;51.098;13.716;2023-05-17T00:52:06;1.50;;;1.10;;
7557;SDS011;3820;51.098;13.716;2023-05-17T00:54:32;1.13;;;1.03;;
7557;SDS011;3820;51.098;13.716;2023-05-17T00:56:59;2.63;;;1.40;;
7557;SDS011;3820;51.098;13.716;2023-05-17T00:59:26;1.60;;;1.50;;
7557;SDS011;3820;51.098;13.716;2023-05-17T01:01:53;1.10;;;1.00;;
7557;SDS011;3820;51.098;13.716;2023-05-17T01:04:20;2.17;;;1.10;;
7557;SDS011;3820;51.098;13.716;2023-05-17T01:06:47;1.17;;;1.10;;
7557;SDS011;3820;51.098;13.716;2023-05-17T01:09:14;1.43;;;1.20;;
7557;SDS011;3820;51.098;13.716;2023-05-17T01:11:53;1.37;;;1.00;;
7557;SDS011;3820;51.098;13.716;2023-05-17T01:17:15;2.47;;;1.13;;
7557;SDS011;3820;51.098;13.716;2023-05-17T01:20:00;1.60;;;1.00;;
7557;SDS011;3820;51.098;13.716;2023-05-17T01:22:38;1.30;;;1.20;;
7557;SDS011;3820;51.098;13.716;2023-05-17T01:25:14;1.40;;;1.10;;
7557;SDS011;3820;51.098;13.716;2023-05-17T01:27:50;2.10;;;1.33;;
7557;SDS011;3820;51.098;13.716;2023-05-17T01:30:18;4.57;;;1.40;;
7557;SDS011;3820;51.098;13.716;2023-05-17T01:32:48;1.03;;;1.03;;
7557;SDS011;3820;51.098;13.716;2023-05-17T01:35:15;1.27;;;1.17;;
7557;SDS011;3820;51.098;13.716;2023-05-17T01:37:42;2.77;;;1.00;;
7557;SDS011;3820;51.098;13.716;2023-05-17T01:40:08;1.27;;;1.17;;
7557;SDS011;3820;51.098;13.716;2023-05-17T01:42:36;1.77;;;1.17;;
7557;SDS011;3820;51.098;13.716;2023-05-17T01:50:44;1.53;;;1.43;;
7557;SDS011;3820;51.098;13.716;2023-05-17T01:53:19;1.37;;;1.27;;
7557;SDS011;3820;51.098;13.716;2023-05-17T01:55:49;3.03;;;1.10;;
7557;SDS011;3820;51.098;13.716;2023-05-17T01:58:19;1.70;;;1.10;;
7557;SDS011;3820;51.098;13.716;2023-05-17T02:00:47;1.47;;;1.23;;
7557;SDS011;3820;51.098;13.716;2023-05-17T02:03:18;1.83;;;1.30;;
7557;SDS011;3820;51.098;13.716;2023-05-17T02:05:45;3.60;;;1.57;;
7557;SDS011;3820;51.098;13.716;2023-05-17T02:08:12;1.20;;;1.10;;
7557;SDS011;3820;51.098;13.716;2023-05-17T02:10:38;1.30;;;1.10;;
7557;SDS011;3820;51.098;13.716;2023-05-17T02:13:05;1.40;;;1.30;;
7557;SDS011;3820;51.098;13.716;2023-05-17T02:15:32;1.30;;;1.10;;
7557;SDS011;3820;51.098;13.716;2023-05-17T02:18:00;1.33;;;1.00;;
7557;SDS011;3820;51.098;13.716;2023-05-17T02:20:26;2.30;;;1.20;;
7557;SDS011;3820;51.098;13.716;2023-05-17T02:22:53;1.13;;;1.07;;
7557;SDS011;3820;51.098;13.716;2023-05-17T02:25:20;2.27;;;1.47;;
7557;SDS011;3820;51.098;13.716;2023-05-17T02:27:46;1.27;;;1.17;;
7557;SDS011;3820;51.098;13.716;2023-05-17T02:30:13;1.13;;;1.03;;
7557;SDS011;3820;51.098;13.716;2023-05-17T02:32:44;1.57;;;1.30;;
7557;SDS011;3820;51.098;13.716;2023-05-17T02:35:11;1.33;;;1.20;;
7557;SDS011;3820;51.098;13.716;2023-05-17T02:37:38;1.53;;;1.10;;
7557;SDS011;3820;51.098;13.716;2023-05-17T02:40:05;1.93;;;1.30;;
7557;SDS011;3820;51.098;13.716;2023-05-17T02:42:35;2.03;;;1.40;;
7557;SDS011;3820;51.098;13.716;2023-05-17T02:45:01;1.63;;;1.50;;
7557;SDS011;3820;51.098;13.716;2023-05-17T02:47:28;1.90;;;1.47;;
7557;SDS011;3820;51.098;13.716;2023-05-17T02:49:55;1.43;;;1.20;;
7557;SDS011;3820;51.098;13.716;2023-05-17T02:52:22;1.50;;;1.30;;
7557;SDS011;3820;51.098;13.716;2023-05-17T02:54:48;1.67;;;1.57;;
7557;SDS011;3820;51.098;13.716;2023-05-17T02:57:15;2.47;;;1.13;;
7557;SDS011;3820;51.098;13.716;2023-05-17T02:59:41;1.93;;;1.27;;
7557;SDS011;3820;51.098;13.716;2023-05-17T03:02:08;3.83;;;1.37;;
7557;SDS011;3820;51.098;13.716;2023-05-17T03:04:34;2.60;;;1.60;;
7557;SDS011;3820;51.098;13.716;2023-05-17T03:07:02;1.90;;;1.20;;
7557;SDS011;3820;51.098;13.716;2023-05-17T03:09:32;3.27;;;1.60;;
7557;SDS011;3820;51.098;13.716;2023-05-17T03:11:58;1.17;;;1.00;;
7557;SDS011;3820;51.098;13.716;2023-05-17T03:14:25;2.30;;;1.40;;
7557;SDS011;3820;51.098;13.716;2023-05-17T03:16:51;4.00;;;1.43;;
7557;SDS011;3820;51.098;13.716;2023-05-17T03:19:18;2.10;;;1.70;;
7557;SDS011;3820;51.098;13.716;2023-05-17T03:21:45;1.17;;;1.17;;
7557;SDS011;3820;51.098;13.716;2023-05-17T03:24:11;2.40;;;1.40;;
7557;SDS011;3820;51.098;13.716;2023-05-17T03:32:29;1.73;;;1.30;;
7557;SDS011;3820;51.098;13.716;2023-05-17T03:34:57;1.67;;;1.57;;
7557;SDS011;3820;51.098;13.716;2023-05-17T03:37:26;2.47;;;1.40;;
7557;SDS011;3820;51.098;13.716;2023-05-17T03:39:53;1.57;;;1.47;;
7557;SDS011;3820;51.098;13.716;2023-05-17T03:42:20;2.13;;;1.60;;
7557;SDS011;3820;51.098;13.716;2023-05-17T03:44:47;1.53;;;1.33;;
7557;SDS011;3820;51.098;13.716;2023-05-17T03:47:14;1.63;;;1.50;;
7557;SDS011;3820;51.098;13.716;2023-05-17T03:49:41;2.53;;;1.90;;
7557;SDS011;3820;51.098;13.716;2023-05-17T03:52:08;2.27;;;1.50;;
7557;SDS011;3820;51.098;13.716;2023-05-17T03:54:36;3.03;;;1.70;;
7557;SDS011;3820;51.098;13.716;2023-05-17T03:57:03;2.10;;;1.47;;
7557;SDS011;3820;51.098;13.716;2023-05-17T03:59:30;4.67;;;1.57;;
7557;SDS011;3820;51.098;13.716;2023-05-17T04:01:56;1.63;;;1.53;;
7557;SDS011;3820;51.098;13.716;2023-05-17T04:04:23;3.83;;;2.50;;
7557;SDS011;3820;51.098;13.716;2023-05-17T04:06:50;3.43;;;1.90;;
7557;SDS011;3820;51.098;13.716;2023-05-17T04:09:17;1.97;;;1.70;;
7557;SDS011;3820;51.098;13.716;2023-05-17T04:11:43;1.80;;;1.50;;
7557;SDS011;3820;51.098;13.716;2023-05-17T04:14:10;3.83;;;2.23;;
7557;SDS011;3820;51.098;13.716;2023-05-17T04:16:37;3.37;;;2.07;;
7557;SDS011;3820;51.098;13.716;2023-05-17T04:19:03;2.67;;;1.70;;
7557;SDS011;3820;51.098;13.716;2023-05-17T04:21:30;5.00;;;1.80;;
7557;SDS011;3820;51.098;13.716;2023-05-17T04:23:57;2.20;;;1.70;;
7557;SDS011;3820;51.098;13.716;2023-05-17T04:26:24;2.10;;;1.63;;
7557;SDS011;3820;51.098;13.716;2023-05-17T04:28:52;3.30;;;1.70;;
7557;SDS011;3820;51.098;13.716;2023-05-17T04:31:18;2.00;;;1.53;;
7557;SDS011;3820;51.098;13.716;2023-05-17T04:33:45;4.57;;;1.80;;
7557;SDS011;3820;51.098;13.716;2023-05-17T04:36:13;3.23;;;1.70;;
7557;SDS011;3820;51.098;13.716;2023-05-17T04:38:40;2.50;;;1.70;;
7557;SDS011;3820;51.098;13.716;2023-05-17T04:41:07;4.13;;;2.00;;
7557;SDS011;3820;51.098;13.716;2023-05-17T04:43:35;6.63;;;1.87;;
7557;SDS011;3820;51.098;13.716;2023-05-17T04:46:04;2.27;;;1.80;;
7557;SDS011;3820;51.098;13.716;2023-05-17T04:48:31;2.17;;;1.60;;
7557;SDS011;3820;51.098;13.716;2023-05-17T04:51:01;2.20;;;1.60;;
7557;SDS011;3820;51.098;13.716;2023-05-17T04:53:29;3.30;;;1.70;;
7557;SDS011;3820;51.098;13.716;2023-05-17T04:55:56;2.77;;;1.90;;
7557;SDS011;3820;51.098;13.716;2023-05-17T04:58:24;4.63;;;2.00;;
7557;SDS011;3820;51.098;13.716;2023-05-17T05:00:51;2.83;;;1.80;;
7557;SDS011;3820;51.098;13.716;2023-05-17T05:03:18;4.27;;;1.93;;
7557;SDS011;3820;51.098;13.716;2023-05-17T05:05:51;3.57;;;1.63;;
7557;SDS011;3820;51.098;13.716;2023-05-17T05:08:17;3.23;;;1.93;;
7557;SDS011;3820;51.098;13.716;2023-05-17T05:10:45;2.37;;;1.90;;
7557;SDS011;3820;51.098;13.716;2023-05-17T05:13:13;3.03;;;1.90;;
7557;SDS011;3820;51.098;13.716;2023-05-17T05:15:40;5.17;;;1.70;;
7557;SDS011;3820;51.098;13.716;2023-05-17T05:18:07;1.77;;;1.40;;
7557;SDS011;3820;51.098;13.716;2023-05-17T05:20:35;3.53;;;1.60;;
7557;SDS011;3820;51.098;13.716;2023-05-17T05:23:02;6.00;;;2.23;;
7557;SDS011;3820;51.098;13.716;2023-05-17T05:25:31;3.20;;;1.80;;
7557;SDS011;3820;51.098;13.716;2023-05-17T05:27:58;4.57;;;1.97;;
7557;SDS011;3820;51.098;13.716;2023-05-17T05:30:24;5.63;;;2.10;;
7557;SDS011;3820;51.098;13.716;2023-05-17T05:32:51;2.67;;;1.70;;
7557;SDS011;3820;51.098;13.716;2023-05-17T05:35:17;2.20;;;1.73;;
7557;SDS011;3820;51.098;13.716;2023-05-17T05:37:44;4.47;;;2.20;;
7557;SDS011;3820;51.098;13.716;2023-05-17T05:40:11;4.50;;;2.10;;
7557;SDS011;3820;51.098;13.716;2023-05-17T05:42:37;2.97;;;2.08;;
7557;SDS011;3820;51.098;13.716;2023-05-17T05:45:04;3.10;;;2.13;;
7557;SDS011;3820;51.098;13.716;2023-05-17T05:47:31;3.08;;;2.00;;
7557;SDS011;3820;51.098;13.716;2023-05-17T05:49:58;6.20;;;2.08;;
7557;SDS011;3820;51.098;13.716;2023-05-17T05:52:24;4.60;;;1.83;;
7557;SDS011;3820;51.098;13.716;2023-05-17T05:54:51;4.25;;;1.80;;
7557;SDS011;3820;51.098;13.716;2023-05-17T05:57:18;2.92;;;1.95;;
7557;SDS011;3820;51.098;13.716;2023-05-17T05:59:45;3.38;;;2.20;;
7557;SDS011;3820;51.098;13.716;2023-05-17T06:02:11;3.33;;;2.25;;
7557;SDS011;3820;51.098;13.716;2023-05-17T06:04:39;3.47;;;2.08;;
7557;SDS011;3820;51.098;13.716;2023-05-17T06:07:12;2.95;;;1.73;;
7557;SDS011;3820;51.098;13.716;2023-05-17T06:09:39;2.35;;;1.73;;
7557;SDS011;3820;51.098;13.716;2023-05-17T06:12:06;2.65;;;2.17;;
7557;SDS011;3820;51.098;13.716;2023-05-17T06:14:33;5.25;;;2.67;;
7557;SDS011;3820;51.098;13.716;2023-05-17T06:17:00;2.90;;;1.80;;
7557;SDS011;3820;51.098;13.716;2023-05-17T06:19:26;2.63;;;2.00;;
7557;SDS011;3820;51.098;13.716;2023-05-17T06:21:53;5.10;;;2.15;;
7557;SDS011;3820;51.098;13.716;2023-05-17T06:24:19;4.18;;;2.53;;
7557;SDS011;3820;51.098;13.716;2023-05-17T06:26:46;5.00;;;2.15;;
7557;SDS011;3820;51.098;13.716;2023-05-17T06:29:12;5.93;;;2.08;;
7557;SDS011;3820;51.098;13.716;2023-05-17T06:31:39;4.93;;;1.73;;
7557;SDS011;3820;51.098;13.716;2023-05-17T06:34:07;5.72;;;2.40;;
7557;SDS011;3820;51.098;13.716;2023-05-17T06:36:34;4.35;;;1.85;;
7557;SDS011;3820;51.098;13.716;2023-05-17T06:39:03;5.55;;;2.20;;
7557;SDS011;3820;51.098;13.716;2023-05-17T06:41:30;3.97;;;2.22;;
7557;SDS011;3820;51.098;13.716;2023-05-17T06:43:56;5.35;;;2.20;;
7557;SDS011;3820;51.098;13.716;2023-05-17T06:46:22;4.05;;;1.98;;
7557;SDS011;3820;51.098;13.716;2023-05-17T06:48:49;2.70;;;1.80;;
7557;SDS011;3820;51.098;13.716;2023-05-17T06:51:16;3.50;;;1.95;;
7557;SDS011;3820;51.098;13.716;2023-05-17T06:53:43;4.85;;;2.33;;
7557;SDS011;3820;51.098;13.716;2023-05-17T06:56:09;3.80;;;2.08;;
7557;SDS011;3820;51.098;13.716;2023-05-17T06:58:36;5.90;;;2.40;;
7557;SDS011;3820;51.098;13.716;2023-05-17T07:01:03;2.55;;;1.90;;
7557;SDS011;3820;51.098;13.716;2023-05-17T07:03:29;3.92;;;1.88;;
7557;SDS011;3820;51.098;13.716;2023-05-17T07:05:56;4.78;;;2.15;;
7557;SDS011;3820;51.098;13.716;2023-05-17T07:08:22;4.55;;;2.00;;
7557;SDS011;3820;51.098;13.716;2023-05-17T07:10:52;4.78;;;2.40;;
7557;SDS011;3820;51.098;13.716;2023-05-17T07:13:18;5.00;;;2.33;;
7557;SDS011;3820;51.098;13.716;2023-05-17T07:15:45;4.15;;;2.47;;
7557;SDS011;3820;51.098;13.716;2023-05-17T07:18:12;6.00;;;2.20;;
7557;SDS011;3820;51.098;13.716;2023-05-17T07:20:38;2.92;;;2.00;;
7557;SDS011;3820;51.098;13.716;2023-05-17T07:23:05;5.32;;;2.33;;
7557;SDS011;3820;51.098;13.716;2023-05-17T07:25:31;6.00;;;2.58;;
7557;SDS011;3820;51.098;13.716;2023-05-17T07:27:58;4.63;;;2.50;;
7557;SDS011;3820;51.098;13.716;2023-05-17T07:30:24;5.47;;;2.83;;
7557;SDS011;3820;51.098;13.716;2023-05-17T07:32:51;3.83;;;2.47;;
7557;SDS011;3820;51.098;13.716;2023-05-17T07:35:17;3.30;;;2.20;;
7557;SDS011;3820;51.098;13.716;2023-05-17T07:37:47;5.20;;;2.70;;
7557;SDS011;3820;51.098;13.716;2023-05-17T07:40:13;8.00;;;2.75;;
7557;SDS011;3820;51.098;13.716;2023-05-17T07:42:40;6.85;;;2.20;;
7557;SDS011;3820;51.098;13.716;2023-05-17T07:45:06;4.35;;;2.35;;
7557;SDS011;3820;51.098;13.716;2023-05-17T07:47:33;6.22;;;2.20;;
7557;SDS011;3820;51.098;13.716;2023-05-17T07:50:01;3.78;;;2.15;;
7557;SDS011;3820;51.098;13.716;2023-05-17T07:52:29;4.40;;;1.92;;
7557;SDS011;3820;51.098;13.716;2023-05-17T07:54:56;5.13;;;2.10;;
7557;SDS011;3820;51.098;13.716;2023-05-17T07:57:22;5.75;;;2.10;;
7557;SDS011;3820;51.098;13.716;2023-05-17T07:59:49;4.85;;;1.88;;
7557;SDS011;3820;51.098;13.716;2023-05-17T08:02:15;3.40;;;1.83;;
7557;SDS011;3820;51.098;13.716;2023-05-17T08:04:42;8.20;;;1.92;;
7557;SDS011;3820;51.098;13.716;2023-05-17T08:07:09;4.05;;;2.20;;
7557;SDS011;3820;51.098;13.716;2023-05-17T08:09:35;4.63;;;1.75;;
7557;SDS011;3820;51.098;13.716;2023-05-17T08:12:02;4.45;;;1.85;;
7557;SDS011;3820;51.098;13.716;2023-05-17T08:14:28;3.72;;;1.88;;
7557;SDS011;3820;51.098;13.716;2023-05-17T08:16:56;4.13;;;1.77;;
7557;SDS011;3820;51.098;13.716;2023-05-17T08:19:23;6.20;;;1.83;;
7557;SDS011;3820;51.098;13.716;2023-05-17T08:21:52;3.25;;;2.13;;
7557;SDS011;3820;51.098;13.716;2023-05-17T08:24:18;7.38;;;1.70;;
7557;SDS011;3820;51.098;13.716;2023-05-17T08:26:45;5.90;;;1.80;;
7557;SDS011;3820;51.098;13.716;2023-05-17T08:29:11;4.75;;;1.67;;
7557;SDS011;3820;51.098;13.716;2023-05-17T08:31:38;4.53;;;1.60;;
7557;SDS011;3820;51.098;13.716;2023-05-17T08:34:04;4.32;;;1.63;;
7557;SDS011;3820;51.098;13.716;2023-05-17T08:36:31;3.00;;;1.50;;
7557;SDS011;3820;51.098;13.716;2023-05-17T08:38:57;4.72;;;1.52;;
7557;SDS011;3820;51.098;13.716;2023-05-17T08:41:24;2.75;;;1.60;;
7557;SDS011;3820;51.098;13.716;2023-05-17T08:43:51;2.55;;;1.23;;
7557;SDS011;3820;51.098;13.716;2023-05-17T08:46:18;2.88;;;1.63;;
7557;SDS011;3820;51.098;13.716;2023-05-17T08:48:49;5.35;;;1.88;;
7557;SDS011;3820;51.098;13.716;2023-05-17T08:51:21;4.63;;;1.70;;
7557;SDS011;3820;51.098;13.716;2023-05-17T08:53:48;3.92;;;1.63;;
7557;SDS011;3820;51.098;13.716;2023-05-17T08:56:16;7.28;;;2.20;;
7557;SDS011;3820;51.098;13.716;2023-05-17T08:58:45;4.78;;;2.15;;
7557;SDS011;3820;51.098;13.716;2023-05-17T09:01:16;3.78;;;2.00;;
7557;SDS011;3820;51.098;13.716;2023-05-17T09:03:47;3.88;;;2.22;;
7557;SDS011;3820;51.098;13.716;2023-05-17T09:06:21;2.58;;;1.80;;
7557;SDS011;3820;51.098;13.716;2023-05-17T09:08:49;4.75;;;1.77;;
7557;SDS011;3820;51.098;13.716;2023-05-17T09:11:30;6.63;;;2.40;;
7557;SDS011;3820;51.098;13.716;2023-05-17T09:13:58;5.38;;;2.30;;
7557;SDS011;3820;51.098;13.716;2023-05-17T09:16:32;3.65;;;2.30;;
7557;SDS011;3820;51.098;13.716;2023-05-17T09:19:01;5.18;;;2.40;;
7557;SDS011;3820;51.098;13.716;2023-05-17T09:21:30;2.33;;;1.92;;
7557;SDS011;3820;51.098;13.716;2023-05-17T09:23:57;2.85;;;2.47;;
7557;SDS011;3820;51.098;13.716;2023-05-17T09:26:39;4.30;;;1.92;;
7557;SDS011;3820;51.098;13.716;2023-05-17T09:29:09;3.58;;;2.13;;
7557;SDS011;3820;51.098;13.716;2023-05-17T09:31:37;4.07;;;2.20;;
7557;SDS011;3820;51.098;13.716;2023-05-17T09:34:04;3.05;;;2.05;;
7557;SDS011;3820;51.098;13.716;2023-05-17T09:36:36;5.07;;;2.20;;
7557;SDS011;3820;51.098;13.716;2023-05-17T09:39:04;3.90;;;2.03;;
7557;SDS011;3820;51.098;13.716;2023-05-17T09:41:32;3.08;;;1.58;;
7557;SDS011;3820;51.098;13.716;2023-05-17T09:44:09;5.13;;;2.20;;
7557;SDS011;3820;51.098;13.716;2023-05-17T09:46:38;4.40;;;1.75;;
7557;SDS011;3820;51.098;13.716;2023-05-17T09:49:07;5.93;;;2.85;;
7557;SDS011;3820;51.098;13.716;2023-05-17T09:51:36;2.85;;;1.73;;
7557;SDS011;3820;51.098;13.716;2023-05-17T09:54:05;2.90;;;1.80;;
7557;SDS011;3820;51.098;13.716;2023-05-17T09:56:32;2.88;;;1.90;;
7557;SDS011;3820;51.098;13.716;2023-05-17T09:59:00;3.13;;;1.73;;
7557;SDS011;3820;51.098;13.716;2023-05-17T10:01:27;4.15;;;1.80;;
7557;SDS011;3820;51.098;13.716;2023-05-17T10:03:57;5.75;;;1.77;;
7557;SDS011;3820;51.098;13.716;2023-05-17T10:06:24;4.45;;;2.03;;
7557;SDS011;3820;51.098;13.716;2023-05-17T10:09:11;2.78;;;1.85;;
7557;SDS011;3820;51.098;13.716;2023-05-17T10:11:39;2.15;;;1.88;;
7557;SDS011;3820;51.098;13.716;2023-05-17T10:14:08;5.70;;;2.00;;
7557;SDS011;3820;51.098;13.716;2023-05-17T10:16:36;6.05;;;2.33;;
7557;SDS011;3820;51.098;13.716;2023-05-17T10:19:03;2.42;;;1.90;;
7557;SDS011;3820;51.098;13.716;2023-05-17T10:21:30;3.65;;;1.75;;
7557;SDS011;3820;51.098;13.716;2023-05-17T10:23:58;2.67;;;1.65;;
7557;SDS011;3820;51.098;13.716;2023-05-17T10:26:26;5.80;;;1.70;;
7557;SDS011;3820;51.098;13.716;2023-05-17T10:28:58;5.47;;;1.83;;
7557;SDS011;3820;51.098;13.716;2023-05-17T10:31:28;4.18;;;1.75;;
7557;SDS011;3820;51.098;13.716;2023-05-17T10:33:56;5.53;;;1.73;;
7557;SDS011;3820;51.098;13.716;2023-05-17T10:36:25;3.55;;;1.40;;
7557;SDS011;3820;51.098;13.716;2023-05-17T10:38:52;3.55;;;1.52;;
7557;SDS011;3820;51.098;13.716;2023-05-17T10:41:20;2.63;;;1.20;;
7557;SDS011;3820;51.098;13.716;2023-05-17T10:43:49;3.13;;;1.40;;
7557;SDS011;3820;51.098;13.716;2023-05-17T10:46:17;3.53;;;1.50;;
7557;SDS011;3820;51.098;13.716;2023-05-17T10:48:47;4.07;;;1.83;;
7557;SDS011;3820;51.098;13.716;2023-05-17T10:51:24;3.92;;;1.92;;
7557;SDS011;3820;51.098;13.716;2023-05-17T10:56:31;3.45;;;1.38;;
7557;SDS011;3820;51.098;13.716;2023-05-17T10:59:14;2.70;;;1.50;;
7557;SDS011;3820;51.098;13.716;2023-05-17T11:01:51;6.53;;;1.45;;
7557;SDS011;3820;51.098;13.716;2023-05-17T11:09:45;4.35;;;1.65;;
7557;SDS011;3820;51.098;13.716;2023-05-17T11:12:55;3.00;;;1.40;;
7557;SDS011;3820;51.098;13.716;2023-05-17T11:15:23;4.75;;;2.22;;
7557;SDS011;3820;51.098;13.716;2023-05-17T11:17:53;4.53;;;1.85;;
7557;SDS011;3820;51.098;13.716;2023-05-17T11:22:58;4.35;;;1.63;;
7557;SDS011;3820;51.098;13.716;2023-05-17T11:25:43;5.18;;;1.60;;
7557;SDS011;3820;51.098;13.716;2023-05-17T11:28:18;3.88;;;1.67;;
7557;SDS011;3820;51.098;13.716;2023-05-17T11:30:45;3.17;;;1.20;;
7557;SDS011;3820;51.098;13.716;2023-05-17T11:33:19;2.13;;;1.27;;
7557;SDS011;3820;51.098;13.716;2023-05-17T11:36:01;3.60;;;1.63;;
7557;SDS011;3820;51.098;13.716;2023-05-17T11:38:29;2.30;;;1.27;;
7557;SDS011;3820;51.098;13.716;2023-05-17T11:40:57;1.50;;;1.08;;
7557;SDS011;3820;51.098;13.716;2023-05-17T11:43:52;3.58;;;1.20;;
7557;SDS011;3820;51.098;13.716;2023-05-17T11:46:20;2.83;;;1.48;;
7557;SDS011;3820;51.098;13.716;2023-05-17T11:48:49;2.67;;;1.10;;
7557;SDS011;3820;51.098;13.716;2023-05-17T11:51:17;2.45;;;1.48;;
7557;SDS011;3820;51.098;13.716;2023-05-17T11:53:48;4.45;;;1.50;;
7557;SDS011;3820;51.098;13.716;2023-05-17T11:56:15;2.30;;;1.17;;
7557;SDS011;3820;51.098;13.716;2023-05-17T11:58:43;4.25;;;1.33;;
7557;SDS011;3820;51.098;13.716;2023-05-17T12:01:10;2.83;;;1.20;;
7557;SDS011;3820;51.098;13.716;2023-05-17T12:03:37;1.42;;;1.05;;
7557;SDS011;3820;51.098;13.716;2023-05-17T12:08:35;2.05;;;1.02;;
7557;SDS011;3820;51.098;13.716;2023-05-17T12:11:04;2.60;;;1.38;;
7557;SDS011;3820;51.098;13.716;2023-05-17T12:13:32;2.92;;;1.20;;
7557;SDS011;3820;51.098;13.716;2023-05-17T12:16:00;1.88;;;1.17;;
7557;SDS011;3820;51.098;13.716;2023-05-17T12:18:35;5.43;;;1.20;;
7557;SDS011;3820;51.098;13.716;2023-05-17T12:21:13;3.00;;;1.35;;
7557;SDS011;3820;51.098;13.716;2023-05-17T12:23:41;2.80;;;1.20;;
7557;SDS011;3820;51.098;13.716;2023-05-17T12:26:12;2.63;;;1.52;;
7557;SDS011;3820;51.098;13.716;2023-05-17T12:28:41;2.17;;;1.20;;
7557;SDS011;3820;51.098;13.716;2023-05-17T12:31:13;5.10;;;1.40;;
7557;SDS011;3820;51.098;13.716;2023-05-17T12:33:42;2.58;;;1.20;;
7557;SDS011;3820;51.098;13.716;2023-05-17T12:36:11;3.55;;;1.20;;
7557;SDS011;3820;51.098;13.716;2023-05-17T12:38:38;2.47;;;1.10;;
7557;SDS011;3820;51.098;13.716;2023-05-17T12:41:07;2.45;;;1.10;;
7557;SDS011;3820;51.098;13.716;2023-05-17T12:43:36;2.17;;;1.08;;
7557;SDS011;3820;51.098;13.716;2023-05-17T12:46:04;2.97;;;1.13;;
7557;SDS011;3820;51.098;13.716;2023-05-17T12:48:35;2.83;;;1.20;;
7557;SDS011;3820;51.098;13.716;2023-05-17T12:51:06;2.38;;;1.40;;
7557;SDS011;3820;51.098;13.716;2023-05-17T12:53:37;3.70;;;1.42;;
7557;SDS011;3820;51.098;13.716;2023-05-17T12:56:05;2.17;;;1.35;;
7557;SDS011;3820;51.098;13.716;2023-05-17T12:58:32;2.50;;;1.48;;
7557;SDS011;3820;51.098;13.716;2023-05-17T13:01:02;2.95;;;1.10;;
7557;SDS011;3820;51.098;13.716;2023-05-17T13:03:32;1.52;;;1.20;;
7557;SDS011;3820;51.098;13.716;2023-05-17T13:06:06;2.50;;;1.17;;
7557;SDS011;3820;51.098;13.716;2023-05-17T13:08:34;2.42;;;1.30;;
7557;SDS011;3820;51.098;13.716;2023-05-17T13:11:11;4.97;;;1.40;;
7557;SDS011;3820;51.098;13.716;2023-05-17T13:13:39;3.30;;;1.20;;
7557;SDS011;3820;51.098;13.716;2023-05-17T13:16:06;1.25;;;1.15;;
7557;SDS011;3820;51.098;13.716;2023-05-17T13:19:10;1.75;;;1.23;;
7557;SDS011;3820;51.098;13.716;2023-05-17T13:21:26;1.65;;;1.10;;
7557;SDS011;3820;51.098;13.716;2023-05-17T13:23:53;2.10;;;1.23;;
7557;SDS011;3820;51.098;13.716;2023-05-17T13:26:20;4.45;;;1.23;;
7557;SDS011;3820;51.098;13.716;2023-05-17T13:28:47;3.85;;;1.35;;
7557;SDS011;3820;51.098;13.716;2023-05-17T13:31:13;2.10;;;1.40;;
7557;SDS011;3820;51.098;13.716;2023-05-17T13:33:40;2.35;;;1.23;;
7557;SDS011;3820;51.098;13.716;2023-05-17T13:36:06;2.67;;;1.30;;
7557;SDS011;3820;51.098;13.716;2023-05-17T13:38:33;3.08;;;1.20;;
7557;SDS011;3820;51.098;13.716;2023-05-17T13:40:59;2.45;;;1.20;;
7557;SDS011;3820;51.098;13.716;2023-05-17T13:43:26;2.55;;;1.30;;
7557;SDS011;3820;51.098;13.716;2023-05-17T13:45:53;5.18;;;1.70;;
7557;SDS011;3820;51.098;13.716;2023-05-17T13:48:22;4.25;;;1.45;;
7557;SDS011;3820;51.098;13.716;2023-05-17T13:50:49;2.63;;;1.08;;
7557;SDS011;3820;51.098;13.716;2023-05-17T13:53:16;3.00;;;1.30;;
7557;SDS011;3820;51.098;13.716;2023-05-17T13:55:43;2.92;;;1.30;;
7557;SDS011;3820;51.098;13.716;2023-05-17T13:58:10;2.58;;;1.38;;
7557;SDS011;3820;51.098;13.716;2023-05-17T14:00:36;1.15;;;0.93;;
7557;SDS011;3820;51.098;13.716;2023-05-17T14:03:03;2.88;;;1.20;;
7557;SDS011;3820;51.098;13.716;2023-05-17T14:05:30;2.63;;;1.58;;
7557;SDS011;3820;51.098;13.716;2023-05-17T14:07:58;3.33;;;1.35;;
7557;SDS011;3820;51.098;13.716;2023-05-17T14:10:25;2.72;;;1.30;;
7557;SDS011;3820;51.098;13.716;2023-05-17T14:12:52;3.15;;;1.10;;
7557;SDS011;3820;51.098;13.716;2023-05-17T14:15:18;3.72;;;1.00;;
7557;SDS011;3820;51.098;13.716;2023-05-17T14:17:45;2.38;;;1.00;;
7557;SDS011;3820;51.098;13.716;2023-05-17T14:20:12;2.28;;;1.00;;
7557;SDS011;3820;51.098;13.716;2023-05-17T14:22:39;4.70;;;1.80;;
7557;SDS011;3820;51.098;13.716;2023-05-17T14:25:06;2.40;;;1.23;;
7557;SDS011;3820;51.098;13.716;2023-05-17T14:27:34;1.85;;;1.05;;
7557;SDS011;3820;51.098;13.716;2023-05-17T14:30:00;3.08;;;1.40;;
7557;SDS011;3820;51.098;13.716;2023-05-17T14:32:28;3.30;;;1.35;;
7557;SDS011;3820;51.098;13.716;2023-05-17T14:34:54;4.40;;;1.40;;
7557;SDS011;3820;51.098;13.716;2023-05-17T14:37:21;3.50;;;1.27;;
7557;SDS011;3820;51.098;13.716;2023-05-17T14:39:48;1.95;;;1.30;;
7557;SDS011;3820;51.098;13.716;2023-05-17T14:42:31;2.42;;;1.35;;
7557;SDS011;3820;51.098;13.716;2023-05-17T14:44:58;2.63;;;1.20;;
7557;SDS011;3820;51.098;13.716;2023-05-17T14:47:24;2.28;;;1.02;;
7557;SDS011;3820;51.098;13.716;2023-05-17T14:49:51;5.18;;;1.40;;
7557;SDS011;3820;51.098;13.716;2023-05-17T14:52:17;1.98;;;1.05;;
7557;SDS011;3820;51.098;13.716;2023-05-17T14:54:44;1.92;;;1.20;;
7557;SDS011;3820;51.098;13.716;2023-05-17T14:57:10;2.83;;;1.20;;
7557;SDS011;3820;51.098;13.716;2023-05-17T14:59:37;4.20;;;1.23;;
7557;SDS011;3820;51.098;13.716;2023-05-17T15:02:04;3.60;;;1.30;;
7557;SDS011;3820;51.098;13.716;2023-05-17T15:04:30;3.47;;;1.30;;
7557;SDS011;3820;51.098;13.716;2023-05-17T15:06:57;4.97;;;1.40;;
7557;SDS011;3820;51.098;13.716;2023-05-17T15:09:24;2.67;;;1.30;;
7557;SDS011;3820;51.098;13.716;2023-05-17T15:11:50;2.63;;;1.08;;
7557;SDS011;3820;51.098;13.716;2023-05-17T15:14:17;2.50;;;1.38;;
7557;SDS011;3820;51.098;13.716;2023-05-17T15:16:47;3.25;;;1.60;;
7557;SDS011;3820;51.098;13.716;2023-05-17T15:19:14;3.35;;;1.30;;
7557;SDS011;3820;51.098;13.716;2023-05-17T15:21:41;3.20;;;1.00;;
7557;SDS011;3820;51.098;13.716;2023-05-17T15:24:08;2.72;;;1.05;;
7557;SDS011;3820;51.098;13.716;2023-05-17T15:26:38;1.77;;;1.00;;
7557;SDS011;3820;51.098;13.716;2023-05-17T15:29:04;4.32;;;1.05;;
7557;SDS011;3820;51.098;13.716;2023-05-17T15:31:31;2.65;;;1.30;;
7557;SDS011;3820;51.098;13.716;2023-05-17T15:33:57;1.90;;;1.17;;